• Join FlightAware (Why Join?)
  • Login
  • US Flag 
11:49PM EDT


 

Airport Tracker/Info


-or-


 

Live Flight TrackerFlight Track Log ✈ N319EE ✈ 02-Oct-2013 ✈ KHPN - KALB

Flight Track Log - Related Links

Times and Time Zones

All times are in EDT time to prevent confusion due to time zone crossing. See the N319EE flight status page for this flight to view local times or setup timezone preferences in your user account.

Time Position Orientation Groundspeed Altitude Reporting Facility
EDT Latitude Longitude Course Direction KTS MPH feet Rate Location/Type
03:38PM 41.1000 -73.7833 294° West 173 199 3,000  Level New York TRACON
03:39PM 41.1000 -73.8500 270° West 182 209 4,600 1,920 Climbing New York TRACON
03:40PM 41.1500 -73.8667 346° North 181 208 6,900 1,860 Climbing New York TRACON
03:41PM 41.1897 -73.7889 56° Northeast 202 232 9,700 1,860 Climbing Boston Center
03:42PM 41.2200 -73.7150 61° Northeast 202 232 11,700 1,620 Climbing Boston Center
03:43PM 41.2497 -73.6522 58° Northeast 208 239 13,000 600 Climbing Boston Center
03:44PM 41.2944 -73.5644 56° Northeast 240 276 13,000  Level Boston Center
03:45PM 41.3575 -73.5131 31° Northeast 263 303 13,000  Level Boston Center
03:46PM 41.4242 -73.5114 North 229 264 13,000  Level Boston Center
03:47PM 41.4928 -73.5125 359° North 235 270 13,000  Level Boston Center
03:48PM 41.5617 -73.5139 359° North 240 276 13,000  Level Boston Center
03:49PM 41.6283 -73.5147 359° North 240 276 13,000  Level Boston Center
03:50PM 41.6992 -73.5161 359° North 240 276 13,000  Level Boston Center
03:51PM 41.7658 -73.5172 359° North 240 276 13,000 -120 Level Boston Center
03:52PM 41.8158 -73.5208 357° North 245 282 12,800 -540 Descending Boston Center
03:52PM 41.8367 -73.5183 North 240 276 12,500 -1,140 Descending Boston Center
03:53PM 41.8931 -73.5222 357° North 261 300 11,700 -1,140 Descending Boston Center
03:53PM 41.9097 -73.5225 359° North 255 293 11,400 -720 Descending Boston Center
03:54PM 41.9700 -73.5264 357° North 281 323 11,000 -420 Descending Boston Center
03:54PM 41.9867 -73.5239 North 263 303 11,000  Level Boston Center
03:55PM 42.0389 -73.5275 357° North 268 308 11,000  Level Boston Center
03:55PM 42.0597 -73.5250 North 263 303 11,000  Level Boston Center
03:56PM 42.1097 -73.5314 355° North 255 293 11,000  Level Boston Center
03:56PM 42.1200 -73.5372 337° Northwest 263 303 11,000  Level Boston Center
03:57PM 42.1717 -73.5661 337° Northwest 236 272 11,000 -120 Level Boston Center
03:57PM 42.1800 -73.5747 323° Northwest 241 277 10,900 -1,440 Descending Boston Center
03:58PM 42.2339 -73.6039 338° Northwest 250 288 9,600 -1,620 Descending Boston Center
03:58PM 42.2464 -73.6097 341° North 241 277 9,300 -1,740 Descending Boston Center
03:59PM 42.3106 -73.6500 335° Northwest 246 283 7,400 -1,920 Descending Boston Center
04:00PM 42.3706 -73.6850 337° Northwest 230 265 5,600 -1,800 Descending Boston Center
04:00PM 42.3664 -73.6822 154° Southeast 240 276 5,600 -1,680 Level Boston Center
04:01PM 42.4244 -73.7169 336° Northwest 223 257 4,100 -1,800 Descending Boston Center
04:01PM 42.4328 -73.7172 359° North 229 264 3,900 -900 Descending Boston Center
04:02PM 42.4825 -73.7519 333° Northwest 227 261 3,200 -720 Descending Boston Center
04:02PM 42.4844 -73.7492 46° Northeast 229 264 3,200 -180 Level Boston Center
04:03PM 42.5447 -73.7842 337° Northwest 217 250 3,000 -180 Descending Boston Center
04:04PM 42.5881 -73.8022 343° North 203 234 2,900 -240 Descending Boston Center
04:04PM 42.5925 -73.7967 43° Northeast 206 237 2,800 -720 Descending Boston Center
04:05PM 42.6442 -73.8147 346° North 201 231 2,100 -840 Descending Boston Center
04:06PM 42.6922 -73.8072 North 146 168 1,200 9,180 Descending Boston Center
04:06PM 42.6961 -73.8300 283° West 201 231 11,000 -720 Climbing Boston Center
04:07PM 42.7319 -73.8081 24° Northeast 125 144 500 -11,100 Descending Boston Center
04:09PM 42.7333 -73.8000 North  Level FlightAware Approximate
04:16PM 42.7491 -73.8020 North  Level Estimated
04:17PM 42.7491 -73.8020 North  Level Estimated
04:18PM 42.7491 -73.8020 North  Level Estimated